Time;durP1;ratioP1;P1;durP2;ratioP2;P2;SDS_P1;SDS_P2;PMS_P1;PMS_P2;Temp;Humidity;BMP_temperature;BMP_pressure;BME280_temperature;BME280_humidity;BME280_pressure;Samples;Min_cycle;Max_cycle;Signal;HPM_P1;HPM_P2
2022/06/10 00:00:23;;;;;;;7.80;2.10;;;;;;;12.90;87.51;96719.75;5034897;28;20046;-79
2022/06/10 00:02:50;;;;;;;5.93;2.55;;;;;;;12.92;87.83;96722.94;5034031;28;20052;-79
2022/06/10 00:05:19;;;;;;;7.35;2.15;;;;;;;12.88;88.12;96721.97;5032289;28;20045;-80
2022/06/10 00:07:46;;;;;;;2.67;1.88;;;;;;;12.95;87.76;96723.13;5033596;28;20041;-79
2022/06/10 00:10:15;;;;;;;4.57;2.22;;;;;;;12.93;87.67;96732.75;5032588;28;20050;-79
2022/06/10 00:12:42;;;;;;;7.07;2.35;;;;;;;12.96;87.35;96724.72;5032641;28;20048;-81
2022/06/10 00:15:10;;;;;;;4.57;2.17;;;;;;;12.73;88.15;96721.34;5032439;28;20045;-79
2022/06/10 00:17:37;;;;;;;7.30;2.10;;;;;;;12.65;88.72;96718.66;5033606;28;20045;-80
2022/06/10 00:20:05;;;;;;;6.82;2.20;;;;;;;12.53;89.46;96722.03;5032879;28;20048;-79
2022/06/10 00:22:32;;;;;;;7.40;2.20;;;;;;;12.74;88.67;96717.50;5032725;28;20382;-80
2022/06/10 00:24:58;;;;;;;9.48;2.85;;;;;;;12.77;88.23;96722.31;5033746;28;20056;-80
2022/06/10 00:27:25;;;;;;;6.32;2.30;;;;;;;12.76;88.15;96730.84;5032717;28;20042;-79
2022/06/10 00:29:51;;;;;;;4.60;2.10;;;;;;;12.87;87.86;96725.84;5033891;28;20044;-79
2022/06/10 00:32:19;;;;;;;4.82;2.50;;;;;;;12.77;88.32;96727.78;5032827;28;20053;-78
2022/06/10 00:34:46;;;;;;;6.65;2.58;;;;;;;12.49;88.77;96729.25;5035151;28;20052;-79
2022/06/10 00:37:12;;;;;;;6.53;2.42;;;;;;;12.60;89.02;96727.00;5032510;28;20057;-78
2022/06/10 00:39:39;;;;;;;4.72;2.47;;;;;;;12.57;89.29;96736.63;5032204;28;20053;-79
2022/06/10 00:42:07;;;;;;;5.75;1.88;;;;;;;12.64;88.60;96734.22;5031601;28;20658;-80
2022/06/10 00:44:36;;;;;;;6.75;2.25;;;;;;;12.65;88.27;96735.84;5033942;28;20092;-80
2022/06/10 00:47:06;;;;;;;3.42;1.65;;;;;;;12.78;88.32;96734.84;5031848;28;20133;-79
2022/06/10 00:49:34;;;;;;;5.68;2.42;;;;;;;12.67;87.72;96732.78;5032876;28;20072;-79
2022/06/10 00:52:00;;;;;;;4.63;2.10;;;;;;;12.70;87.16;96732.94;5032046;28;20049;-80
2022/06/10 00:54:31;;;;;;;5.13;1.95;;;;;;;12.69;87.39;96728.59;5029132;28;20060;-80
2022/06/10 00:57:02;;;;;;;3.90;1.77;;;;;;;12.76;87.11;96733.59;5032702;28;20064;-79
2022/06/10 00:59:33;;;;;;;4.97;2.00;;;;;;;12.69;86.73;96741.47;5032111;28;20048;-78
2022/06/10 01:02:05;;;;;;;4.25;1.90;;;;;;;12.58;87.25;96743.72;5034234;28;20050;-79
2022/06/10 01:04:31;;;;;;;6.07;2.20;;;;;;;12.35;88.13;96742.25;5032711;28;20048;-79
2022/06/10 01:06:59;;;;;;;3.40;2.15;;;;;;;12.39;88.57;96735.81;5032999;28;20037;-80
2022/06/10 01:09:28;;;;;;;5.00;2.22;;;;;;;12.50;87.87;96742.56;5031837;28;20504;-79
2022/06/10 01:12:07;;;;;;;3.75;1.77;;;;;;;12.58;87.45;96741.00;5033172;28;20053;-80
2022/06/10 01:14:48;;;;;;;3.70;2.00;;;;;;;12.48;87.31;96742.09;5012460;28;20048;-80
2022/06/10 01:17:28;;;;;;;3.75;2.10;;;;;;;12.44;87.80;96740.34;5011796;28;20477;-80
2022/06/10 01:20:16;;;;;;;4.05;2.05;;;;;;;12.35;87.94;96748.50;5014762;28;20041;-80
2022/06/10 01:23:32;;;;;;;4.38;2.42;;;;;;;12.35;88.44;96747.69;5015313;28;20046;-79
2022/06/10 01:27:47;;;;;;;7.32;2.08;;;;;;;12.49;88.01;96748.38;5012903;28;20370;-80
2022/06/10 01:29:49;;;;;;;3.72;1.88;;;;;;;12.54;87.17;96757.22;5001940;28;20049;-78
2022/06/10 01:32:26;;;;;;;4.97;2.08;;;;;;;12.48;87.62;96757.69;4959629;28;20046;-79
2022/06/10 01:35:02;;;;;;;4.43;2.20;;;;;;;12.53;87.13;96763.00;5011721;28;20045;-79
2022/06/10 01:37:36;;;;;;;5.47;1.92;;;;;;;12.50;87.60;96766.34;5011922;28;20042;-80
2022/06/10 01:40:11;;;;;;;4.55;2.15;;;;;;;12.31;87.88;96763.13;5012137;28;20482;-80
2022/06/10 01:42:45;;;;;;;7.13;2.17;;;;;;;12.32;88.36;96764.72;5017646;28;20042;-80
2022/06/10 01:45:16;;;;;;;4.30;1.92;;;;;;;12.42;87.90;96764.41;5031569;28;20045;-80
2022/06/10 01:47:48;;;;;;;4.72;2.03;;;;;;;12.37;87.80;96768.13;5032556;28;20416;-79
2022/06/10 01:50:22;;;;;;;2.95;2.08;;;;;;;12.37;87.73;96772.75;5031339;28;20042;-79
2022/06/10 01:52:53;;;;;;;5.28;2.00;;;;;;;12.41;87.77;96773.72;5032529;28;20045;-80
2022/06/10 01:55:28;;;;;;;5.45;2.30;;;;;;;12.34;87.64;96778.88;5032651;28;20053;-82
2022/06/10 01:57:58;;;;;;;5.10;2.03;;;;;;;12.26;87.58;96778.53;5033302;28;20048;-79
2022/06/10 02:00:28;;;;;;;4.55;1.95;;;;;;;12.39;87.57;96782.25;5030896;28;20042;-79
2022/06/10 02:03:00;;;;;;;5.22;2.00;;;;;;;12.37;87.83;96780.94;5030550;28;20499;-79
2022/06/10 02:05:31;;;;;;;3.42;2.00;;;;;;;12.36;87.52;96782.88;5030825;28;20041;-79
2022/06/10 02:08:04;;;;;;;5.00;2.00;;;;;;;12.45;87.77;96780.97;5014187;28;20053;-79
2022/06/10 02:10:36;;;;;;;4.97;2.15;;;;;;;12.46;87.61;96787.22;5028570;28;20620;-80
2022/06/10 02:13:33;;;;;;;4.53;2.30;;;;;;;12.38;87.92;96785.31;5030701;28;20061;-80
2022/06/10 02:16:02;;;;;;;4.15;2.10;;;;;;;12.48;87.55;96785.00;5031410;28;20053;-79
2022/06/10 02:18:36;;;;;;;4.97;2.30;;;;;;;12.34;87.58;96792.53;5030571;28;20046;-79
2022/06/10 02:21:09;;;;;;;5.47;2.20;;;;;;;12.34;87.33;96793.31;5019828;28;20045;-77
2022/06/10 02:23:42;;;;;;;4.30;2.30;;;;;;;12.15;88.42;96798.25;5031562;28;20050;-79
2022/06/10 02:26:11;;;;;;;5.93;2.15;;;;;;;12.32;88.12;96797.47;5030411;28;20292;-80
2022/06/10 02:28:41;;;;;;;8.85;2.35;;;;;;;12.24;87.69;96799.09;5030506;28;20038;-80
2022/06/10 02:31:14;;;;;;;4.47;2.10;;;;;;;12.13;88.86;96805.97;5030994;28;20053;-80
2022/06/10 02:33:42;;;;;;;6.93;2.40;;;;;;;12.12;88.48;96810.63;5020103;28;20054;-79
2022/06/10 02:36:13;;;;;;;6.35;2.35;;;;;;;12.19;87.97;96810.97;5030065;28;20516;-79
2022/06/10 02:38:50;;;;;;;4.10;2.00;;;;;;;12.27;87.94;96804.72;5030332;28;20061;-79
2022/06/10 02:41:23;;;;;;;4.35;2.47;;;;;;;12.28;88.27;96811.78;5009214;28;20054;-80
2022/06/10 02:43:57;;;;;;;5.85;2.30;;;;;;;12.36;88.14;96809.38;5010742;28;20100;-79
2022/06/10 02:46:29;;;;;;;6.15;2.42;;;;;;;12.28;88.03;96817.25;5010067;28;20050;-78
2022/06/10 02:49:03;;;;;;;4.60;2.30;;;;;;;12.23;87.91;96814.66;5010831;28;20068;-79
2022/06/10 02:51:30;;;;;;;3.92;2.03;;;;;;;12.27;87.39;96814.84;5010622;28;20042;-79
2022/06/10 02:53:57;;;;;;;4.53;1.92;;;;;;;12.35;87.38;96813.25;5010397;28;20053;-79
2022/06/10 02:56:26;;;;;;;3.95;2.05;;;;;;;12.37;86.78;96816.44;5011074;28;20042;-79
2022/06/10 03:01:48;;;;;;;3.65;2.20;;;;;;;12.07;88.32;96824.41;5011762;28;20072;-79
2022/06/10 03:04:22;;;;;;;6.35;2.25;;;;;;;12.01;88.58;96822.94;5011220;28;20078;-79
2022/06/10 03:07:04;;;;;;;6.90;2.45;;;;;;;11.95;88.80;96824.19;5012133;28;20057;-78
2022/06/10 03:09:41;;;;;;;7.10;2.47;;;;;;;12.13;88.52;96827.81;5010573;28;20046;-79
2022/06/10 03:12:20;;;;;;;6.10;2.60;;;;;;;11.90;88.63;96836.06;5025102;28;20128;-78
2022/06/10 03:15:00;;;;;;;5.25;2.33;;;;;;;12.06;89.21;96839.19;5034449;28;20048;-79
2022/06/10 03:17:40;;;;;;;4.30;2.45;;;;;;;11.75;90.04;96839.97;5036054;28;20472;-81
2022/06/10 03:20:16;;;;;;;7.53;2.88;;;;;;;11.88;89.62;96842.94;5002377;28;20052;-79
2022/06/10 03:22:56;;;;;;;4.88;2.22;;;;;;;11.75;89.52;96844.63;5035869;28;20053;-81
2022/06/10 03:25:25;;;;;;;6.03;2.28;;;;;;;11.90;89.62;96840.69;5035204;28;20072;-79
2022/06/10 03:28:02;;;;;;;5.75;2.67;;;;;;;12.00;88.99;96845.88;5034794;28;20455;-80
2022/06/10 03:30:34;;;;;;;6.22;2.30;;;;;;;11.76;88.98;96852.50;5034469;28;20045;-80
2022/06/10 03:33:08;;;;;;;3.67;2.25;;;;;;;11.87;89.90;96855.00;5035284;28;20056;-79
2022/06/10 03:35:42;;;;;;;5.88;2.55;;;;;;;11.82;89.92;96860.59;5034385;28;20041;-79
2022/06/10 03:38:10;;;;;;;8.32;2.65;;;;;;;11.90;89.72;96862.53;5033328;28;20041;-78
2022/06/10 03:40:37;;;;;;;5.60;2.33;;;;;;;12.04;89.18;96863.25;5033755;28;20069;-79
2022/06/10 03:43:06;;;;;;;8.02;2.72;;;;;;;12.05;88.88;96869.50;5034849;28;20069;-79
2022/06/10 03:45:36;;;;;;;5.88;2.60;;;;;;;11.88;89.20;96862.06;5035171;28;20455;-79
2022/06/10 03:48:04;;;;;;;5.43;2.30;;;;;;;11.86;89.08;96862.38;5034627;28;20045;-79
2022/06/10 03:50:35;;;;;;;7.55;2.70;;;;;;;11.94;89.05;96866.25;5034050;28;20523;-79
2022/06/10 03:53:04;;;;;;;5.07;2.30;;;;;;;12.08;88.63;96864.25;5033564;28;20064;-77
2022/06/10 03:55:31;;;;;;;5.72;2.20;;;;;;;12.11;88.60;96870.97;5033723;28;20175;-79
2022/06/10 03:57:57;;;;;;;6.07;2.78;;;;;;;12.06;88.76;96880.13;5033228;28;20049;-78
2022/06/10 04:00:27;;;;;;;4.15;2.00;;;;;;;12.16;88.24;96879.88;5033513;28;20503;-79
2022/06/10 04:02:53;;;;;;;3.15;2.22;;;;;;;12.22;87.91;96886.78;5033128;28;20042;-79
2022/06/10 04:05:20;;;;;;;7.22;2.72;;;;;;;12.15;87.90;96886.41;5033061;28;20046;-79
2022/06/10 04:07:47;;;;;;;5.53;2.10;;;;;;;12.25;87.77;96891.59;5033296;28;20124;-80
2022/06/10 04:10:17;;;;;;;5.05;2.20;;;;;;;12.14;87.45;96889.47;5032456;28;20048;-79
2022/06/10 04:12:45;;;;;;;3.78;2.00;;;;;;;12.22;87.43;96889.50;5033152;28;20049;-81
2022/06/10 04:15:14;;;;;;;4.88;2.35;;;;;;;12.23;87.68;96893.84;5033260;28;20740;-81
2022/06/10 04:17:41;;;;;;;3.13;2.08;;;;;;;12.01;88.40;96900.19;5034353;28;20041;-81
2022/06/10 04:20:08;;;;;;;4.72;2.17;;;;;;;12.12;88.56;96897.19;5032153;28;20041;-81
2022/06/10 04:22:36;;;;;;;4.05;2.15;;;;;;;12.22;88.24;96903.16;5033042;28;20056;-81
2022/06/10 04:25:03;;;;;;;4.57;2.25;;;;;;;12.36;87.83;96896.78;5032454;28;20046;-82
2022/06/10 04:27:31;;;;;;;5.47;2.20;;;;;;;12.36;87.39;96902.25;5034652;28;20056;-81
2022/06/10 04:29:58;;;;;;;4.97;2.03;;;;;;;12.38;86.83;96900.00;5033529;28;20124;-80
2022/06/10 04:32:25;;;;;;;9.30;2.45;;;;;;;12.26;87.49;96901.41;5033739;28;20065;-81
2022/06/10 04:34:51;;;;;;;3.58;2.28;;;;;;;12.23;87.35;96901.25;5036069;28;20049;-80
2022/06/10 04:37:18;;;;;;;5.82;2.10;;;;;;;12.30;87.10;96904.31;5034886;28;20037;-79
2022/06/10 04:42:25;;;;;;;5.38;2.58;;;;;;;12.30;86.99;96909.78;5163162;23;20125;-75
2022/06/10 04:44:53;;;;;;;5.10;2.40;;;;;;;12.19;87.33;96908.44;4971066;28;20070;-75
2022/06/10 04:47:19;;;;;;;4.25;1.90;;;;;;;12.47;86.73;96909.03;4970719;28;20129;-75
2022/06/10 04:49:46;;;;;;;5.32;2.35;;;;;;;12.39;86.74;96912.53;4972744;28;20073;-76
2022/06/10 04:52:13;;;;;;;3.78;2.35;;;;;;;12.25;87.52;96907.97;4987944;28;20038;-80
2022/06/10 04:54:39;;;;;;;4.53;2.17;;;;;;;12.36;88.04;96913.16;5042949;23;20041;-80
2022/06/10 04:57:06;;;;;;;5.93;2.20;;;;;;;12.53;88.05;96907.78;5029980;28;20041;-80
2022/06/10 04:59:33;;;;;;;3.28;2.30;;;;;;;12.61;87.37;96915.19;5031387;28;20069;-79
2022/06/10 05:02:01;;;;;;;4.30;2.10;;;;;;;12.73;85.44;96912.63;5031063;28;20493;-80
2022/06/10 05:04:28;;;;;;;3.80;2.20;;;;;;;12.62;85.64;96913.25;5038287;28;20038;-80
2022/06/10 05:06:55;;;;;;;3.95;2.20;;;;;;;12.65;87.09;96918.09;5031023;28;20072;-80
2022/06/10 05:09:21;;;;;;;6.10;2.63;;;;;;;12.65;86.01;96916.16;5030332;28;20060;-78
2022/06/10 05:11:48;;;;;;;6.75;2.60;;;;;;;12.70;86.05;96918.75;5030881;28;20046;-81
2022/06/10 05:14:14;;;;;;;6.85;2.65;;;;;;;12.70;86.34;96907.81;5014541;28;20057;-80
2022/06/10 05:16:41;;;;;;;4.82;2.60;;;;;;;12.63;86.22;96918.38;5030152;28;20045;-79
2022/06/10 05:19:08;;;;;;;5.93;2.65;;;;;;;12.77;85.85;96916.34;5030388;28;20072;-79
2022/06/10 05:21:36;;;;;;;8.15;2.90;;;;;;;12.83;86.33;96927.13;5030581;28;20052;-79
2022/06/10 05:24:03;;;;;;;4.82;2.58;;;;;;;12.90;86.87;96927.47;5029377;28;20527;-79
2022/06/10 05:26:29;;;;;;;6.78;2.67;;;;;;;12.80;86.20;96932.13;5030349;28;20551;-80
2022/06/10 05:28:57;;;;;;;6.65;2.97;;;;;;;12.97;86.63;96931.34;5030405;28;20501;-80
2022/06/10 05:31:23;;;;;;;6.00;2.97;;;;;;;13.11;86.20;96936.69;5029980;28;20052;-79
2022/06/10 05:36:35;;;;;;;7.68;2.75;;;;;;;13.01;85.61;96939.72;5030291;28;20164;-79
2022/06/10 05:39:02;;;;;;;5.47;2.63;;;;;;;13.12;85.48;96935.53;5030056;28;20048;-79
2022/06/10 05:44:12;;;;;;;6.00;2.80;;;;;;;13.27;84.27;96940.59;5030080;28;20160;-80
2022/06/10 05:46:39;;;;;;;5.47;2.65;;;;;;;13.38;83.48;96937.53;5030525;28;20048;-79
2022/06/10 05:49:06;;;;;;;4.72;2.88;;;;;;;13.30;84.38;96933.66;5029875;28;20049;-80
2022/06/10 05:51:33;;;;;;;6.07;3.00;;;;;;;13.39;83.82;96934.47;5030493;28;20037;-80
2022/06/10 05:54:01;;;;;;;5.32;2.70;;;;;;;13.32;84.44;96934.94;5030414;28;20041;-79
2022/06/10 05:56:28;;;;;;;6.40;3.20;;;;;;;13.34;85.39;96936.56;5030013;28;20051;-79
2022/06/10 05:58:54;;;;;;;6.22;2.47;;;;;;;13.47;84.76;96946.56;5030136;28;20132;-80
2022/06/10 06:01:21;;;;;;;5.25;2.40;;;;;;;13.56;85.37;96939.13;5029146;28;20497;-79
2022/06/10 06:03:47;;;;;;;5.68;3.00;;;;;;;13.61;84.96;96952.63;5030153;28;20496;-79
2022/06/10 06:06:15;;;;;;;7.72;3.35;;;;;;;13.66;84.00;96949.75;5029686;28;20069;-80
2022/06/10 06:08:41;;;;;;;6.53;3.10;;;;;;;13.71;83.88;96957.78;5029825;28;20447;-80
2022/06/10 06:11:09;;;;;;;4.80;3.33;;;;;;;13.74;84.22;96954.41;5028969;28;20045;-80
2022/06/10 06:13:36;;;;;;;6.65;3.33;;;;;;;13.84;84.02;96958.75;5029722;28;20056;-79
2022/06/10 06:16:03;;;;;;;7.75;2.90;;;;;;;13.84;82.33;96962.28;5029530;28;20416;-79
2022/06/10 06:18:30;;;;;;;8.63;3.83;;;;;;;13.67;83.35;96961.50;5029956;28;20119;-79
2022/06/10 06:20:56;;;;;;;5.43;3.00;;;;;;;13.52;84.99;96965.50;5030196;28;20447;-80
2022/06/10 06:23:23;;;;;;;6.20;3.20;;;;;;;13.88;83.77;96965.16;5029574;28;20377;-79
2022/06/10 06:25:49;;;;;;;8.63;3.75;;;;;;;13.96;83.38;96963.56;5029736;28;20091;-80
2022/06/10 06:28:17;;;;;;;5.28;3.35;;;;;;;13.80;83.22;96964.06;5029257;28;20474;-79
2022/06/10 06:30:43;;;;;;;7.88;3.10;;;;;;;13.98;83.21;96955.81;5029565;28;20038;-79
2022/06/10 06:33:10;;;;;;;6.47;3.30;;;;;;;14.03;82.18;96956.44;5029264;28;20324;-80
2022/06/10 06:35:38;;;;;;;7.85;3.15;;;;;;;14.19;81.10;96962.22;5030010;28;20042;-80
2022/06/10 06:38:06;;;;;;;6.68;3.53;;;;;;;13.81;82.98;96957.44;5029390;28;20485;-79
2022/06/10 06:40:33;;;;;;;8.90;3.25;;;;;;;13.99;82.39;96963.72;5029074;28;20056;-79
2022/06/10 06:43:00;;;;;;;8.70;3.13;;;;;;;14.07;82.18;96954.66;5029811;28;20041;-79
2022/06/10 06:45:29;;;;;;;9.40;3.35;;;;;;;13.91;83.10;96955.53;5029547;28;20048;-79
2022/06/10 06:47:56;;;;;;;6.60;3.30;;;;;;;14.21;82.76;96959.97;5031474;28;20654;-79
2022/06/10 06:50:26;;;;;;;7.55;3.60;;;;;;;14.16;81.31;96951.91;5032861;28;20480;-78
2022/06/10 06:52:53;;;;;;;8.65;3.22;;;;;;;14.38;82.96;96964.59;5033430;28;20396;-80
2022/06/10 06:55:20;;;;;;;8.10;3.30;;;;;;;14.54;81.23;96962.13;5032934;28;20136;-80
2022/06/10 06:57:47;;;;;;;10.73;3.60;;;;;;;14.57;81.68;96962.28;5033358;28;20050;-79
2022/06/10 07:00:15;;;;;;;12.65;3.80;;;;;;;14.52;81.23;96965.22;5032963;28;20037;-79
2022/06/10 07:02:43;;;;;;;4.80;3.20;;;;;;;14.78;80.61;96967.84;5033150;28;20408;-79
2022/06/10 07:05:12;;;;;;;7.00;3.00;;;;;;;15.04;79.54;96972.38;5032759;28;20041;-80
2022/06/10 07:07:39;;;;;;;9.73;3.30;;;;;;;15.11;78.06;96970.72;5033360;28;20041;-80
2022/06/10 07:10:07;;;;;;;7.72;3.40;;;;;;;15.14;79.35;96977.50;5032972;28;20045;-80
2022/06/10 07:12:33;;;;;;;7.72;3.38;;;;;;;15.20;79.37;96975.34;5032727;28;20045;-80
2022/06/10 07:15:00;;;;;;;6.70;3.25;;;;;;;15.46;80.51;96975.19;5033230;28;20042;-79
2022/06/10 07:17:26;;;;;;;7.35;3.70;;;;;;;15.44;79.66;96989.22;5033103;28;20041;-79
2022/06/10 07:19:58;;;;;;;6.80;3.35;;;;;;;15.61;77.69;96977.31;5033254;28;20042;-80
2022/06/10 07:22:24;;;;;;;8.60;4.05;;;;;;;15.49;78.49;96980.78;5032763;28;20116;-79
2022/06/10 07:24:51;;;;;;;5.90;3.58;;;;;;;15.41;75.96;96978.91;5032844;28;20049;-79
2022/06/10 07:27:17;;;;;;;9.13;3.50;;;;;;;15.53;78.33;96991.91;5032132;28;20046;-79
2022/06/10 07:29:44;;;;;;;7.50;3.88;;;;;;;15.56;77.63;96978.31;5033033;28;20045;-79
2022/06/10 07:32:10;;;;;;;6.05;3.58;;;;;;;15.70;77.17;96991.78;5032451;28;20057;-80
2022/06/10 07:34:37;;;;;;;6.93;3.90;;;;;;;15.67;76.57;96980.69;5032911;28;20041;-79
2022/06/10 07:37:05;;;;;;;8.80;3.67;;;;;;;15.60;77.85;96981.19;5032117;28;20642;-79
2022/06/10 07:39:33;;;;;;;5.07;3.50;;;;;;;15.64;77.70;96987.66;5032902;28;20049;-79
2022/06/10 07:42:00;;;;;;;9.15;4.07;;;;;;;15.71;78.15;96990.66;5031873;28;20049;-78
2022/06/10 07:44:29;;;;;;;8.60;4.18;;;;;;;16.00;75.82;96994.47;5032320;28;20116;-79
2022/06/10 07:46:58;;;;;;;6.63;3.65;;;;;;;15.94;76.01;96990.31;5032457;28;20508;-80
2022/06/10 07:49:25;;;;;;;8.52;3.88;;;;;;;15.92;77.15;96990.63;5032003;28;20095;-79
2022/06/10 07:51:51;;;;;;;11.02;4.07;;;;;;;15.81;76.31;96992.19;5032537;28;20052;-81
2022/06/10 07:54:19;;;;;;;5.97;3.78;;;;;;;15.81;77.00;96997.69;5032037;28;20461;-80
2022/06/10 07:56:46;;;;;;;11.30;4.60;;;;;;;15.98;77.96;96997.56;5032025;28;20052;-80
2022/06/10 07:59:14;;;;;;;8.18;4.55;;;;;;;16.03;79.16;97002.03;5020835;28;20042;-79
2022/06/10 08:01:41;;;;;;;6.85;4.20;;;;;;;16.23;74.99;96995.66;5031636;28;20418;-79
2022/06/10 08:04:08;;;;;;;8.25;4.38;;;;;;;16.30;76.85;97001.44;5031892;28;20052;-79
2022/06/10 08:06:39;;;;;;;6.07;3.40;;;;;;;16.59;75.11;97002.41;5032244;28;20492;-79
2022/06/10 08:09:07;;;;;;;6.60;4.32;;;;;;;16.57;74.24;97004.72;5032049;28;20115;-79
2022/06/10 08:11:35;;;;;;;6.88;3.85;;;;;;;16.92;73.41;97005.13;5031734;28;20049;-80
2022/06/10 08:14:01;;;;;;;7.03;3.90;;;;;;;17.24;72.96;96997.09;5031488;28;20053;-80
2022/06/10 08:16:28;;;;;;;6.68;3.50;;;;;;;17.41;69.37;97016.09;5032228;28;20053;-80
2022/06/10 08:18:54;;;;;;;5.63;3.47;;;;;;;17.37;68.94;97007.72;5032413;28;20115;-80
2022/06/10 08:24:06;;;;;;;5.90;3.50;;;;;;;16.95;73.53;97002.47;5031786;28;20591;-80
2022/06/10 08:26:35;;;;;;;6.75;3.55;;;;;;;17.61;71.42;97000.59;5032069;28;20072;-78
2022/06/10 08:29:03;;;;;;;7.35;4.13;;;;;;;17.50;66.36;97004.97;5031098;28;20045;-76
2022/06/10 08:31:29;;;;;;;10.05;3.65;;;;;;;17.36;68.12;97005.34;5031753;28;20121;-78
2022/06/10 08:33:57;;;;;;;8.15;3.75;;;;;;;17.67;71.98;96999.19;5031711;28;20044;-78
2022/06/10 08:36:24;;;;;;;8.30;3.95;;;;;;;18.09;69.40;96998.84;5031274;28;20049;-78
2022/06/10 08:38:50;;;;;;;7.18;3.75;;;;;;;18.32;65.37;97002.63;5031331;28;20041;-79
2022/06/10 08:41:26;;;;;;;9.52;3.40;;;;;;;18.20;64.76;96998.00;5030533;28;20045;-78
2022/06/10 08:44:07;;;;;;;7.85;3.70;;;;;;;18.37;66.92;97004.34;5031988;28;20048;-78
2022/06/10 08:47:07;;;;;;;5.95;3.45;;;;;;;18.09;65.02;96996.09;5031428;28;20480;-81
2022/06/10 08:49:54;;;;;;;6.00;3.60;;;;;;;17.78;64.66;97008.59;5031375;28;20056;-80
2022/06/10 08:52:27;;;;;;;5.80;2.88;;;;;;;17.82;64.98;96998.50;5031094;28;20049;-81
2022/06/10 08:54:59;;;;;;;5.38;3.72;;;;;;;17.67;67.12;97007.47;5030286;28;20052;-80
2022/06/10 08:57:32;;;;;;;5.18;3.35;;;;;;;17.91;70.02;97004.66;5031221;28;20125;-80
2022/06/10 09:00:01;;;;;;;5.03;3.63;;;;;;;18.47;74.10;96996.34;5031815;28;20493;-80
2022/06/10 09:02:32;;;;;;;8.00;3.40;;;;;;;18.85;61.64;97008.81;5003934;28;20507;-80
2022/06/10 09:05:06;;;;;;;4.97;3.22;;;;;;;18.78;60.64;97003.09;5031554;28;20042;-81
2022/06/10 09:07:41;;;;;;;6.80;3.65;;;;;;;18.40;62.38;97009.97;5032824;28;20042;-80
2022/06/10 09:10:20;;;;;;;3.95;2.90;;;;;;;18.60;63.89;97007.34;5031214;28;20045;-80
2022/06/10 09:13:07;;;;;;;4.15;2.35;;;;;;;18.97;65.10;97011.47;5032050;28;20065;-78
2022/06/10 09:15:42;;;;;;;7.70;2.42;;;;;;;19.28;57.63;97009.84;5031356;28;20048;-81
2022/06/10 09:18:14;;;;;;;4.75;2.80;;;;;;;19.29;59.30;97008.69;5031240;28;20048;-79
2022/06/10 09:20:47;;;;;;;4.63;2.58;;;;;;;19.45;56.42;97014.97;5032116;28;20052;-79
2022/06/10 09:23:17;;;;;;;;;;;;;;;19.70;63.79;97009.25;5033434;28;20069;-79
2022/06/10 09:25:45;;;;;;;5.43;3.28;;;;;;;19.48;55.20;97008.75;5034708;28;20001;-80
2022/06/10 09:28:12;;;;;;;5.18;2.47;;;;;;;19.39;58.80;97010.09;5033467;28;20053;-80
2022/06/10 09:30:47;;;;;;;4.57;2.95;;;;;;;18.94;55.89;97014.13;5033951;28;20049;-80
2022/06/10 09:33:22;;;;;;;6.30;2.90;;;;;;;18.81;58.29;97013.44;5034598;28;20052;-80
2022/06/10 09:36:02;;;;;;;4.85;2.78;;;;;;;18.93;57.66;97010.56;5035296;28;20049;-80
2022/06/10 09:38:35;;;;;;;7.50;2.92;;;;;;;19.06;59.22;97013.25;5033409;28;20037;-80
2022/06/10 09:41:09;;;;;;;5.07;3.00;;;;;;;18.33;59.09;97015.28;5030428;28;20044;-76
2022/06/10 09:43:49;;;;;;;5.72;2.88;;;;;;;18.56;58.79;97018.25;5032950;28;20037;-81
2022/06/10 09:46:42;;;;;;;5.97;2.42;;;;;;;18.24;60.94;97009.13;5033961;28;20045;-80
2022/06/10 09:49:24;;;;;;;6.13;2.90;;;;;;;18.29;59.84;97016.34;5032636;28;20052;-79
2022/06/10 09:52:03;;;;;;;7.72;3.40;;;;;;;18.31;58.17;97006.56;5033069;28;20459;-80
2022/06/10 09:54:47;;;;;;;5.57;2.67;;;;;;;18.62;60.89;97007.78;5033567;28;20045;-81
2022/06/10 09:57:34;;;;;;;6.82;2.97;;;;;;;18.94;55.69;97012.16;5031764;28;20585;-80
2022/06/10 10:00:05;;;;;;;7.40;2.97;;;;;;;19.22;57.72;97003.00;5035850;28;20408;-77
2022/06/10 10:02:47;;;;;;;4.80;2.92;;;;;;;19.13;54.05;97013.41;5033165;28;20687;-79
2022/06/10 10:05:29;;;;;;;6.68;2.55;;;;;;;19.22;55.73;97014.03;5032562;28;20049;-79
2022/06/10 10:08:03;;;;;;;4.32;2.53;;;;;;;19.15;55.80;97016.63;5033806;28;20037;-78
2022/06/10 10:10:34;;;;;;;5.60;2.85;;;;;;;19.04;54.59;97003.34;5032023;28;20072;-79
2022/06/10 10:13:17;;;;;;;5.65;2.70;;;;;;;19.26;55.55;97007.44;5033531;28;20050;-80
2022/06/10 10:15:50;;;;;;;3.92;2.70;;;;;;;19.20;55.01;96999.78;5033042;28;20041;-79
2022/06/10 10:18:39;;;;;;;3.95;2.60;;;;;;;19.24;55.76;96998.72;5033990;28;20072;-79
2022/06/10 10:21:11;;;;;;;4.60;2.55;;;;;;;19.39;53.45;97005.38;5034295;28;20053;-78
2022/06/10 10:23:41;;;;;;;4.78;2.90;;;;;;;19.32;55.79;97004.41;5037440;28;20118;-78
2022/06/10 10:26:19;;;;;;;5.55;2.75;;;;;;;19.42;56.34;96998.31;5037575;28;20441;-78
2022/06/10 10:28:48;;;;;;;4.38;2.60;;;;;;;19.70;61.17;97000.97;5037240;28;20103;-79
2022/06/10 10:31:20;;;;;;;3.95;2.53;;;;;;;19.59;56.26;96997.97;5039950;28;20053;-78
2022/06/10 10:33:48;;;;;;;6.67;3.10;;;;;;;19.07;56.09;96996.34;5037949;28;20125;-78
2022/06/10 10:36:24;;;;;;;3.38;2.33;;;;;;;18.96;55.91;97004.34;5035658;28;20508;-78
2022/06/10 10:38:53;;;;;;;4.55;2.60;;;;;;;18.93;56.03;97010.56;5035212;28;20037;-79
2022/06/10 10:41:30;;;;;;;4.60;2.40;;;;;;;18.90;53.23;97000.25;5035750;28;20455;-77
2022/06/10 10:44:01;;;;;;;4.85;2.72;;;;;;;18.88;52.97;96996.25;5036812;28;20451;-80
2022/06/10 10:46:35;;;;;;;4.32;2.67;;;;;;;19.04;55.66;97000.59;5036457;28;20487;-78
2022/06/10 10:49:17;;;;;;;5.30;2.80;;;;;;;19.42;51.08;96992.78;5038553;28;20049;-78
2022/06/10 10:51:49;;;;;;;4.90;2.75;;;;;;;19.67;50.69;96987.84;5039781;28;20119;-79
2022/06/10 10:54:21;;;;;;;3.65;2.60;;;;;;;19.55;50.97;96995.06;5037043;28;20045;-79
2022/06/10 10:56:49;;;;;;;3.85;2.63;;;;;;;19.72;51.62;96984.81;5036871;28;20045;-78
2022/06/10 10:59:28;;;;;;;6.05;2.83;;;;;;;19.62;51.43;96990.91;5035686;28;20489;-78
2022/06/10 11:01:56;;;;;;;4.05;2.65;;;;;;;19.69;49.12;96988.31;5036070;28;20041;-78
2022/06/10 11:04:31;;;;;;;3.80;2.35;;;;;;;19.79;55.03;96993.28;5035813;28;20045;-79
2022/06/10 11:07:04;;;;;;;7.15;2.67;;;;;;;19.96;54.40;96989.28;5037250;28;20527;-79
2022/06/10 11:09:33;;;;;;;5.05;2.15;;;;;;;20.08;50.02;96984.38;5037056;28;20053;-79
2022/06/10 11:12:04;;;;;;;3.90;2.63;;;;;;;20.11;51.68;96984.84;5036628;28;20041;-79
2022/06/10 11:14:34;;;;;;;8.55;3.08;;;;;;;20.19;55.56;96981.03;5038641;28;20054;-79
2022/06/10 11:17:09;;;;;;;4.45;2.30;;;;;;;20.50;53.17;96978.09;5036866;28;20409;-79
2022/06/10 11:19:48;;;;;;;7.00;2.90;;;;;;;20.74;57.89;96973.38;5038054;28;20498;-80
2022/06/10 11:22:24;;;;;;;3.00;1.90;;;;;;;20.87;50.61;96977.53;5036560;28;20042;-78
2022/06/10 11:24:54;;;;;;;5.05;3.25;;;;;;;20.81;52.32;96974.28;5036351;28;20049;-79
2022/06/10 11:27:31;;;;;;;4.60;2.70;;;;;;;20.95;54.42;96972.94;5033894;28;20067;-78
2022/06/10 11:30:16;;;;;;;4.15;2.70;;;;;;;20.82;56.21;96970.34;5034657;28;20544;-79
2022/06/10 11:32:53;;;;;;;7.60;2.63;;;;;;;20.54;53.36;96961.56;5035157;28;20068;-79
2022/06/10 11:35:26;;;;;;;6.85;3.03;;;;;;;20.91;54.07;96970.09;5035907;28;20045;-79
2022/06/10 11:37:55;;;;;;;5.13;2.58;;;;;;;21.03;52.50;96969.09;5035769;28;20045;-79
2022/06/10 11:40:26;;;;;;;5.68;2.83;;;;;;;21.06;53.40;96966.41;5035037;28;20057;-78
2022/06/10 11:42:59;;;;;;;6.10;3.40;;;;;;;20.68;52.95;96963.78;5015884;28;20092;-79
2022/06/10 11:45:31;;;;;;;7.68;3.08;;;;;;;20.82;53.19;96964.03;5016970;28;20041;-79
2022/06/10 11:48:05;;;;;;;5.15;2.88;;;;;;;20.88;56.76;96957.03;5014893;28;20046;-78
2022/06/10 11:50:41;;;;;;;4.85;3.10;;;;;;;20.68;55.22;96955.50;5013742;28;20425;-78
2022/06/10 11:53:16;;;;;;;5.10;3.05;;;;;;;20.62;55.18;96960.53;5015368;28;20061;-78
2022/06/10 11:55:47;;;;;;;6.65;3.17;;;;;;;20.67;58.07;96956.63;5017622;28;20057;-80
2022/06/10 12:01:09;;;;;;;4.50;2.90;;;;;;;20.85;56.65;96947.47;5017404;28;20425;-78
2022/06/10 12:03:43;;;;;;;5.18;3.33;;;;;;;21.00;55.65;96948.50;5016174;28;20042;-79
2022/06/10 12:06:18;;;;;;;5.28;3.28;;;;;;;20.95;54.74;96951.59;5016035;28;20042;-80
2022/06/10 12:08:49;;;;;;;4.75;2.50;;;;;;;20.99;54.54;96946.13;5017548;28;20041;-80